sensor_id;sensor_type;location;lat;lon;timestamp;P1;durP1;ratioP1;P2;durP2;ratioP2
18320;SDS011;54904;54.350;18.664;2023-03-14T00:02:16;7.37;;;4.93;;
18320;SDS011;54904;54.350;18.664;2023-03-14T00:04:43;10.53;;;5.27;;
18320;SDS011;54904;54.350;18.664;2023-03-14T00:07:12;5.60;;;4.00;;
18320;SDS011;54904;54.350;18.664;2023-03-14T00:09:40;9.77;;;4.90;;
18320;SDS011;54904;54.350;18.664;2023-03-14T00:12:08;8.87;;;4.43;;
18320;SDS011;54904;54.350;18.664;2023-03-14T00:14:35;11.00;;;5.07;;
18320;SDS011;54904;54.350;18.664;2023-03-14T00:17:02;10.10;;;4.63;;
18320;SDS011;54904;54.350;18.664;2023-03-14T00:19:29;8.73;;;4.47;;
18320;SDS011;54904;54.350;18.664;2023-03-14T00:21:57;6.77;;;4.20;;
18320;SDS011;54904;54.350;18.664;2023-03-14T00:24:25;4.60;;;3.60;;
18320;SDS011;54904;54.350;18.664;2023-03-14T00:26:52;7.53;;;4.03;;
18320;SDS011;54904;54.350;18.664;2023-03-14T00:29:22;7.77;;;4.40;;
18320;SDS011;54904;54.350;18.664;2023-03-14T00:31:49;4.80;;;3.80;;
18320;SDS011;54904;54.350;18.664;2023-03-14T00:34:16;5.10;;;4.23;;
18320;SDS011;54904;54.350;18.664;2023-03-14T00:36:44;11.17;;;5.20;;
18320;SDS011;54904;54.350;18.664;2023-03-14T00:39:11;7.03;;;4.67;;
18320;SDS011;54904;54.350;18.664;2023-03-14T00:41:40;7.27;;;4.53;;
18320;SDS011;54904;54.350;18.664;2023-03-14T00:44:07;6.87;;;4.17;;
18320;SDS011;54904;54.350;18.664;2023-03-14T00:46:34;5.27;;;3.80;;
18320;SDS011;54904;54.350;18.664;2023-03-14T00:49:01;5.83;;;4.00;;
18320;SDS011;54904;54.350;18.664;2023-03-14T00:51:29;4.90;;;4.03;;
18320;SDS011;54904;54.350;18.664;2023-03-14T00:53:56;8.00;;;4.03;;
18320;SDS011;54904;54.350;18.664;2023-03-14T00:56:23;5.37;;;3.97;;
18320;SDS011;54904;54.350;18.664;2023-03-14T00:58:54;3.90;;;3.50;;
18320;SDS011;54904;54.350;18.664;2023-03-14T01:01:22;4.67;;;3.30;;
18320;SDS011;54904;54.350;18.664;2023-03-14T01:03:50;5.27;;;3.70;;
18320;SDS011;54904;54.350;18.664;2023-03-14T01:06:19;5.30;;;3.50;;
18320;SDS011;54904;54.350;18.664;2023-03-14T01:08:48;3.63;;;3.30;;
18320;SDS011;54904;54.350;18.664;2023-03-14T01:11:16;4.40;;;3.27;;
18320;SDS011;54904;54.350;18.664;2023-03-14T01:13:45;5.70;;;3.77;;
18320;SDS011;54904;54.350;18.664;2023-03-14T01:16:13;4.93;;;3.80;;
18320;SDS011;54904;54.350;18.664;2023-03-14T01:18:42;3.83;;;2.83;;
18320;SDS011;54904;54.350;18.664;2023-03-14T01:21:10;5.80;;;3.77;;
18320;SDS011;54904;54.350;18.664;2023-03-14T01:23:39;5.57;;;4.07;;
18320;SDS011;54904;54.350;18.664;2023-03-14T01:26:08;7.33;;;3.93;;
18320;SDS011;54904;54.350;18.664;2023-03-14T01:28:37;5.63;;;3.17;;
18320;SDS011;54904;54.350;18.664;2023-03-14T01:31:05;5.10;;;3.27;;
18320;SDS011;54904;54.350;18.664;2023-03-14T01:33:36;5.83;;;3.53;;
18320;SDS011;54904;54.350;18.664;2023-03-14T01:36:04;4.20;;;3.17;;
18320;SDS011;54904;54.350;18.664;2023-03-14T01:38:32;5.10;;;3.53;;
18320;SDS011;54904;54.350;18.664;2023-03-14T01:41:02;4.97;;;3.20;;
18320;SDS011;54904;54.350;18.664;2023-03-14T01:43:30;4.40;;;3.03;;
18320;SDS011;54904;54.350;18.664;2023-03-14T01:48:52;4.50;;;3.33;;
18320;SDS011;54904;54.350;18.664;2023-03-14T01:51:25;3.43;;;2.97;;
18320;SDS011;54904;54.350;18.664;2023-03-14T01:54:01;4.40;;;3.40;;
18320;SDS011;54904;54.350;18.664;2023-03-14T01:56:32;4.50;;;3.53;;
18320;SDS011;54904;54.350;18.664;2023-03-14T01:59:01;5.07;;;3.27;;
18320;SDS011;54904;54.350;18.664;2023-03-14T02:01:32;3.47;;;2.90;;
18320;SDS011;54904;54.350;18.664;2023-03-14T02:04:02;4.67;;;3.00;;
18320;SDS011;54904;54.350;18.664;2023-03-14T02:06:34;4.83;;;3.30;;
18320;SDS011;54904;54.350;18.664;2023-03-14T02:09:07;5.97;;;3.80;;
18320;SDS011;54904;54.350;18.664;2023-03-14T02:11:34;4.53;;;3.40;;
18320;SDS011;54904;54.350;18.664;2023-03-14T02:14:10;6.67;;;4.47;;
18320;SDS011;54904;54.350;18.664;2023-03-14T02:17:08;5.30;;;4.20;;
18320;SDS011;54904;54.350;18.664;2023-03-14T02:20:03;5.83;;;3.80;;
18320;SDS011;54904;54.350;18.664;2023-03-14T02:22:40;5.40;;;3.67;;
18320;SDS011;54904;54.350;18.664;2023-03-14T02:25:12;4.53;;;3.50;;
18320;SDS011;54904;54.350;18.664;2023-03-14T02:27:45;8.23;;;3.73;;
18320;SDS011;54904;54.350;18.664;2023-03-14T02:30:14;6.77;;;3.90;;
18320;SDS011;54904;54.350;18.664;2023-03-14T02:32:46;5.13;;;3.10;;
18320;SDS011;54904;54.350;18.664;2023-03-14T02:35:15;5.10;;;3.37;;
18320;SDS011;54904;54.350;18.664;2023-03-14T02:37:48;4.33;;;2.90;;
18320;SDS011;54904;54.350;18.664;2023-03-14T02:40:19;5.17;;;3.23;;
18320;SDS011;54904;54.350;18.664;2023-03-14T02:42:51;3.33;;;3.00;;
18320;SDS011;54904;54.350;18.664;2023-03-14T02:45:33;3.40;;;3.10;;
18320;SDS011;54904;54.350;18.664;2023-03-14T02:48:04;4.80;;;3.43;;
18320;SDS011;54904;54.350;18.664;2023-03-14T02:50:36;6.13;;;3.77;;
18320;SDS011;54904;54.350;18.664;2023-03-14T02:53:05;8.10;;;3.60;;
18320;SDS011;54904;54.350;18.664;2023-03-14T02:55:32;3.77;;;3.07;;
18320;SDS011;54904;54.350;18.664;2023-03-14T02:58:06;4.00;;;3.20;;
18320;SDS011;54904;54.350;18.664;2023-03-14T03:00:33;6.13;;;3.50;;
18320;SDS011;54904;54.350;18.664;2023-03-14T03:03:03;3.60;;;2.83;;
18320;SDS011;54904;54.350;18.664;2023-03-14T03:05:31;3.50;;;3.20;;
18320;SDS011;54904;54.350;18.664;2023-03-14T03:07:59;3.23;;;2.63;;
18320;SDS011;54904;54.350;18.664;2023-03-14T03:10:26;2.83;;;2.40;;
18320;SDS011;54904;54.350;18.664;2023-03-14T03:12:54;2.60;;;2.40;;
18320;SDS011;54904;54.350;18.664;2023-03-14T03:15:26;7.50;;;2.97;;
18320;SDS011;54904;54.350;18.664;2023-03-14T03:17:53;8.67;;;3.43;;
18320;SDS011;54904;54.350;18.664;2023-03-14T03:20:20;6.10;;;3.17;;
18320;SDS011;54904;54.350;18.664;2023-03-14T03:22:47;6.50;;;3.77;;
18320;SDS011;54904;54.350;18.664;2023-03-14T03:25:15;6.13;;;3.57;;
18320;SDS011;54904;54.350;18.664;2023-03-14T03:27:44;6.67;;;3.97;;
18320;SDS011;54904;54.350;18.664;2023-03-14T03:30:15;6.27;;;3.93;;
18320;SDS011;54904;54.350;18.664;2023-03-14T03:32:44;5.63;;;3.47;;
18320;SDS011;54904;54.350;18.664;2023-03-14T03:35:12;6.57;;;3.50;;
18320;SDS011;54904;54.350;18.664;2023-03-14T03:37:40;4.07;;;3.10;;
18320;SDS011;54904;54.350;18.664;2023-03-14T03:40:08;3.60;;;2.23;;
18320;SDS011;54904;54.350;18.664;2023-03-14T03:42:36;2.33;;;2.13;;
18320;SDS011;54904;54.350;18.664;2023-03-14T03:45:07;5.83;;;2.70;;
18320;SDS011;54904;54.350;18.664;2023-03-14T03:47:41;2.30;;;2.10;;
18320;SDS011;54904;54.350;18.664;2023-03-14T03:50:10;2.27;;;2.07;;
18320;SDS011;54904;54.350;18.664;2023-03-14T03:52:37;4.33;;;2.60;;
18320;SDS011;54904;54.350;18.664;2023-03-14T03:55:04;3.60;;;2.60;;
18320;SDS011;54904;54.350;18.664;2023-03-14T03:57:32;2.77;;;2.53;;
18320;SDS011;54904;54.350;18.664;2023-03-14T03:59:59;3.37;;;2.73;;
18320;SDS011;54904;54.350;18.664;2023-03-14T04:02:26;3.63;;;3.00;;
18320;SDS011;54904;54.350;18.664;2023-03-14T04:04:54;3.83;;;2.50;;
18320;SDS011;54904;54.350;18.664;2023-03-14T04:07:23;2.70;;;2.37;;
18320;SDS011;54904;54.350;18.664;2023-03-14T04:09:50;3.33;;;2.40;;
18320;SDS011;54904;54.350;18.664;2023-03-14T04:12:25;2.87;;;2.57;;
18320;SDS011;54904;54.350;18.664;2023-03-14T04:15:04;3.40;;;2.70;;
18320;SDS011;54904;54.350;18.664;2023-03-14T04:17:33;6.27;;;3.40;;
18320;SDS011;54904;54.350;18.664;2023-03-14T04:20:00;3.30;;;3.00;;
18320;SDS011;54904;54.350;18.664;2023-03-14T04:22:36;3.63;;;2.80;;
18320;SDS011;54904;54.350;18.664;2023-03-14T04:25:04;4.27;;;3.03;;
18320;SDS011;54904;54.350;18.664;2023-03-14T04:27:37;4.57;;;3.37;;
18320;SDS011;54904;54.350;18.664;2023-03-14T04:30:10;3.90;;;3.03;;
18320;SDS011;54904;54.350;18.664;2023-03-14T04:33:10;7.47;;;4.00;;
18320;SDS011;54904;54.350;18.664;2023-03-14T04:35:47;5.27;;;3.17;;
18320;SDS011;54904;54.350;18.664;2023-03-14T04:38:18;4.77;;;3.40;;
18320;SDS011;54904;54.350;18.664;2023-03-14T04:40:47;3.77;;;3.27;;
18320;SDS011;54904;54.350;18.664;2023-03-14T04:43:17;4.03;;;2.97;;
18320;SDS011;54904;54.350;18.664;2023-03-14T04:45:51;5.40;;;3.10;;
18320;SDS011;54904;54.350;18.664;2023-03-14T04:48:18;3.40;;;2.70;;
18320;SDS011;54904;54.350;18.664;2023-03-14T04:50:46;3.53;;;2.70;;
18320;SDS011;54904;54.350;18.664;2023-03-14T04:53:14;5.83;;;3.23;;
18320;SDS011;54904;54.350;18.664;2023-03-14T04:55:48;6.83;;;3.73;;
18320;SDS011;54904;54.350;18.664;2023-03-14T04:58:16;4.43;;;3.40;;
18320;SDS011;54904;54.350;18.664;2023-03-14T05:00:45;6.77;;;4.10;;
18320;SDS011;54904;54.350;18.664;2023-03-14T05:03:31;5.97;;;3.70;;
18320;SDS011;54904;54.350;18.664;2023-03-14T05:06:07;5.10;;;3.50;;
18320;SDS011;54904;54.350;18.664;2023-03-14T05:08:53;6.00;;;4.40;;
18320;SDS011;54904;54.350;18.664;2023-03-14T05:11:37;4.83;;;3.60;;
18320;SDS011;54904;54.350;18.664;2023-03-14T05:14:04;3.77;;;3.17;;
18320;SDS011;54904;54.350;18.664;2023-03-14T05:16:37;4.17;;;3.50;;
18320;SDS011;54904;54.350;18.664;2023-03-14T05:19:10;6.00;;;3.87;;
18320;SDS011;54904;54.350;18.664;2023-03-14T05:21:55;4.37;;;3.97;;
18320;SDS011;54904;54.350;18.664;2023-03-14T05:24:42;4.93;;;3.83;;
18320;SDS011;54904;54.350;18.664;2023-03-14T05:27:20;5.27;;;3.90;;
18320;SDS011;54904;54.350;18.664;2023-03-14T05:29:59;6.63;;;4.60;;
18320;SDS011;54904;54.350;18.664;2023-03-14T05:33:04;6.53;;;4.20;;
18320;SDS011;54904;54.350;18.664;2023-03-14T05:35:50;6.37;;;4.17;;
18320;SDS011;54904;54.350;18.664;2023-03-14T05:38:56;4.77;;;3.67;;
18320;SDS011;54904;54.350;18.664;2023-03-14T05:41:38;3.83;;;3.43;;
18320;SDS011;54904;54.350;18.664;2023-03-14T05:44:25;4.23;;;3.13;;
18320;SDS011;54904;54.350;18.664;2023-03-14T05:47:13;4.47;;;3.20;;
18320;SDS011;54904;54.350;18.664;2023-03-14T05:50:13;6.23;;;3.20;;
18320;SDS011;54904;54.350;18.664;2023-03-14T05:52:54;5.30;;;3.40;;
18320;SDS011;54904;54.350;18.664;2023-03-14T05:55:29;3.63;;;3.27;;
18320;SDS011;54904;54.350;18.664;2023-03-14T05:58:16;3.83;;;3.13;;
18320;SDS011;54904;54.350;18.664;2023-03-14T06:00:45;6.57;;;3.27;;
18320;SDS011;54904;54.350;18.664;2023-03-14T06:03:32;6.03;;;2.90;;
18320;SDS011;54904;54.350;18.664;2023-03-14T06:05:59;4.03;;;3.07;;
18320;SDS011;54904;54.350;18.664;2023-03-14T06:08:26;5.63;;;2.53;;
18320;SDS011;54904;54.350;18.664;2023-03-14T06:10:54;4.47;;;2.90;;
18320;SDS011;54904;54.350;18.664;2023-03-14T06:13:27;5.03;;;4.00;;
18320;SDS011;54904;54.350;18.664;2023-03-14T06:15:56;6.80;;;3.80;;
18320;SDS011;54904;54.350;18.664;2023-03-14T06:18:23;5.03;;;3.20;;
18320;SDS011;54904;54.350;18.664;2023-03-14T06:20:53;6.27;;;4.23;;
18320;SDS011;54904;54.350;18.664;2023-03-14T06:23:24;5.43;;;3.60;;
18320;SDS011;54904;54.350;18.664;2023-03-14T06:25:52;6.00;;;3.77;;
18320;SDS011;54904;54.350;18.664;2023-03-14T06:28:22;8.13;;;4.07;;
18320;SDS011;54904;54.350;18.664;2023-03-14T06:30:49;9.73;;;5.03;;
18320;SDS011;54904;54.350;18.664;2023-03-14T06:33:18;9.20;;;5.00;;
18320;SDS011;54904;54.350;18.664;2023-03-14T06:35:45;10.30;;;5.00;;
18320;SDS011;54904;54.350;18.664;2023-03-14T06:38:13;9.00;;;5.37;;
18320;SDS011;54904;54.350;18.664;2023-03-14T06:40:40;9.97;;;5.13;;
18320;SDS011;54904;54.350;18.664;2023-03-14T06:43:11;6.77;;;4.40;;
18320;SDS011;54904;54.350;18.664;2023-03-14T06:45:42;9.60;;;5.77;;
18320;SDS011;54904;54.350;18.664;2023-03-14T06:48:09;10.93;;;5.97;;
18320;SDS011;54904;54.350;18.664;2023-03-14T06:50:44;8.53;;;5.40;;
18320;SDS011;54904;54.350;18.664;2023-03-14T06:53:12;10.60;;;6.77;;
18320;SDS011;54904;54.350;18.664;2023-03-14T06:55:42;12.33;;;6.23;;
18320;SDS011;54904;54.350;18.664;2023-03-14T06:58:12;10.30;;;5.80;;
18320;SDS011;54904;54.350;18.664;2023-03-14T07:00:42;14.97;;;7.40;;
18320;SDS011;54904;54.350;18.664;2023-03-14T07:03:13;11.50;;;6.17;;
18320;SDS011;54904;54.350;18.664;2023-03-14T07:05:45;11.13;;;5.63;;
18320;SDS011;54904;54.350;18.664;2023-03-14T07:08:12;12.27;;;5.43;;
18320;SDS011;54904;54.350;18.664;2023-03-14T07:10:40;11.30;;;5.67;;
18320;SDS011;54904;54.350;18.664;2023-03-14T07:13:07;9.50;;;5.33;;
18320;SDS011;54904;54.350;18.664;2023-03-14T07:15:44;8.43;;;5.00;;
18320;SDS011;54904;54.350;18.664;2023-03-14T07:18:12;10.00;;;5.03;;
18320;SDS011;54904;54.350;18.664;2023-03-14T07:20:39;8.50;;;4.30;;
18320;SDS011;54904;54.350;18.664;2023-03-14T07:23:08;6.70;;;4.33;;
18320;SDS011;54904;54.350;18.664;2023-03-14T07:25:40;6.30;;;3.63;;
18320;SDS011;54904;54.350;18.664;2023-03-14T07:28:08;4.57;;;2.80;;
18320;SDS011;54904;54.350;18.664;2023-03-14T07:30:37;4.90;;;2.97;;
18320;SDS011;54904;54.350;18.664;2023-03-14T07:33:11;2.60;;;2.40;;
18320;SDS011;54904;54.350;18.664;2023-03-14T07:35:38;6.03;;;2.80;;
18320;SDS011;54904;54.350;18.664;2023-03-14T07:38:05;4.87;;;2.60;;
18320;SDS011;54904;54.350;18.664;2023-03-14T07:40:39;4.50;;;2.70;;
18320;SDS011;54904;54.350;18.664;2023-03-14T07:43:06;6.30;;;3.00;;
18320;SDS011;54904;54.350;18.664;2023-03-14T07:45:45;4.80;;;2.30;;
18320;SDS011;54904;54.350;18.664;2023-03-14T07:48:12;5.60;;;3.10;;
18320;SDS011;54904;54.350;18.664;2023-03-14T07:50:40;2.87;;;2.30;;
18320;SDS011;54904;54.350;18.664;2023-03-14T07:53:07;3.77;;;2.40;;
18320;SDS011;54904;54.350;18.664;2023-03-14T07:55:34;4.43;;;2.50;;
18320;SDS011;54904;54.350;18.664;2023-03-14T07:58:03;3.43;;;2.77;;
18320;SDS011;54904;54.350;18.664;2023-03-14T08:00:30;3.13;;;2.30;;
18320;SDS011;54904;54.350;18.664;2023-03-14T08:02:57;2.80;;;2.30;;
18320;SDS011;54904;54.350;18.664;2023-03-14T08:05:25;4.13;;;2.93;;
18320;SDS011;54904;54.350;18.664;2023-03-14T08:07:53;3.90;;;3.10;;
18320;SDS011;54904;54.350;18.664;2023-03-14T08:10:20;6.13;;;3.20;;
18320;SDS011;54904;54.350;18.664;2023-03-14T08:12:49;3.20;;;2.80;;
18320;SDS011;54904;54.350;18.664;2023-03-14T08:15:18;3.60;;;2.87;;
18320;SDS011;54904;54.350;18.664;2023-03-14T08:17:46;3.33;;;2.80;;
18320;SDS011;54904;54.350;18.664;2023-03-14T08:20:16;5.93;;;3.07;;
18320;SDS011;54904;54.350;18.664;2023-03-14T08:22:43;3.50;;;2.93;;
18320;SDS011;54904;54.350;18.664;2023-03-14T08:25:11;2.93;;;2.60;;
18320;SDS011;54904;54.350;18.664;2023-03-14T08:27:38;3.03;;;2.20;;
18320;SDS011;54904;54.350;18.664;2023-03-14T08:30:06;2.80;;;2.00;;
18320;SDS011;54904;54.350;18.664;2023-03-14T08:32:37;3.30;;;2.37;;
18320;SDS011;54904;54.350;18.664;2023-03-14T08:35:05;2.60;;;2.40;;
18320;SDS011;54904;54.350;18.664;2023-03-14T08:37:37;2.83;;;2.50;;
18320;SDS011;54904;54.350;18.664;2023-03-14T08:40:05;3.83;;;2.80;;
18320;SDS011;54904;54.350;18.664;2023-03-14T08:42:34;3.20;;;2.37;;
18320;SDS011;54904;54.350;18.664;2023-03-14T08:45:01;2.73;;;2.53;;
18320;SDS011;54904;54.350;18.664;2023-03-14T08:47:28;3.70;;;2.60;;
18320;SDS011;54904;54.350;18.664;2023-03-14T08:49:57;5.73;;;2.97;;
18320;SDS011;54904;54.350;18.664;2023-03-14T08:52:24;4.07;;;3.23;;
18320;SDS011;54904;54.350;18.664;2023-03-14T08:54:51;3.77;;;2.83;;
18320;SDS011;54904;54.350;18.664;2023-03-14T08:57:18;3.00;;;2.57;;
18320;SDS011;54904;54.350;18.664;2023-03-14T08:59:47;4.60;;;2.60;;
18320;SDS011;54904;54.350;18.664;2023-03-14T09:02:14;2.67;;;2.23;;
18320;SDS011;54904;54.350;18.664;2023-03-14T09:04:41;2.80;;;2.40;;
18320;SDS011;54904;54.350;18.664;2023-03-14T09:07:10;2.60;;;2.40;;
18320;SDS011;54904;54.350;18.664;2023-03-14T09:09:37;1.90;;;1.80;;
18320;SDS011;54904;54.350;18.664;2023-03-14T09:12:04;2.90;;;2.60;;
18320;SDS011;54904;54.350;18.664;2023-03-14T09:14:32;3.87;;;2.67;;
18320;SDS011;54904;54.350;18.664;2023-03-14T09:17:01;4.10;;;2.47;;
18320;SDS011;54904;54.350;18.664;2023-03-14T09:19:29;2.13;;;1.93;;
18320;SDS011;54904;54.350;18.664;2023-03-14T09:21:58;2.00;;;1.80;;
18320;SDS011;54904;54.350;18.664;2023-03-14T09:24:26;3.70;;;2.40;;
18320;SDS011;54904;54.350;18.664;2023-03-14T09:26:54;2.50;;;2.27;;
18320;SDS011;54904;54.350;18.664;2023-03-14T09:29:22;8.57;;;2.00;;
18320;SDS011;54904;54.350;18.664;2023-03-14T09:31:49;3.50;;;2.03;;
18320;SDS011;54904;54.350;18.664;2023-03-14T09:34:16;3.77;;;2.60;;
18320;SDS011;54904;54.350;18.664;2023-03-14T09:36:44;4.67;;;2.40;;
18320;SDS011;54904;54.350;18.664;2023-03-14T09:39:11;3.77;;;2.17;;
18320;SDS011;54904;54.350;18.664;2023-03-14T09:41:41;2.70;;;2.50;;
18320;SDS011;54904;54.350;18.664;2023-03-14T09:44:11;3.10;;;2.57;;
18320;SDS011;54904;54.350;18.664;2023-03-14T09:46:43;4.27;;;2.37;;
18320;SDS011;54904;54.350;18.664;2023-03-14T09:49:16;3.00;;;2.40;;
18320;SDS011;54904;54.350;18.664;2023-03-14T09:51:49;2.70;;;2.50;;
18320;SDS011;54904;54.350;18.664;2023-03-14T09:54:26;2.63;;;2.43;;
18320;SDS011;54904;54.350;18.664;2023-03-14T09:57:00;3.83;;;2.20;;
18320;SDS011;54904;54.350;18.664;2023-03-14T09:59:28;7.30;;;2.63;;
18320;SDS011;54904;54.350;18.664;2023-03-14T10:01:56;3.13;;;2.63;;
18320;SDS011;54904;54.350;18.664;2023-03-14T10:04:27;2.87;;;2.50;;
18320;SDS011;54904;54.350;18.664;2023-03-14T10:06:57;4.50;;;2.43;;
18320;SDS011;54904;54.350;18.664;2023-03-14T10:09:24;3.07;;;2.33;;
18320;SDS011;54904;54.350;18.664;2023-03-14T10:11:53;3.13;;;2.40;;
18320;SDS011;54904;54.350;18.664;2023-03-14T10:14:31;2.40;;;2.10;;
18320;SDS011;54904;54.350;18.664;2023-03-14T10:17:06;3.60;;;2.60;;
18320;SDS011;54904;54.350;18.664;2023-03-14T10:19:35;2.60;;;2.40;;
18320;SDS011;54904;54.350;18.664;2023-03-14T10:22:03;3.67;;;2.50;;
18320;SDS011;54904;54.350;18.664;2023-03-14T10:24:32;2.97;;;2.67;;
18320;SDS011;54904;54.350;18.664;2023-03-14T10:27:00;2.73;;;2.50;;
18320;SDS011;54904;54.350;18.664;2023-03-14T10:29:34;4.17;;;2.53;;
18320;SDS011;54904;54.350;18.664;2023-03-14T10:32:19;2.40;;;2.20;;
18320;SDS011;54904;54.350;18.664;2023-03-14T10:35:03;4.87;;;2.93;;
18320;SDS011;54904;54.350;18.664;2023-03-14T10:37:47;2.03;;;1.90;;
18320;SDS011;54904;54.350;18.664;2023-03-14T10:40:18;2.60;;;2.40;;
18320;SDS011;54904;54.350;18.664;2023-03-14T10:42:47;3.17;;;2.67;;
18320;SDS011;54904;54.350;18.664;2023-03-14T10:45:32;5.37;;;3.30;;
18320;SDS011;54904;54.350;18.664;2023-03-14T10:50:49;6.80;;;3.43;;
18320;SDS011;54904;54.350;18.664;2023-03-14T10:53:20;4.50;;;3.37;;
18320;SDS011;54904;54.350;18.664;2023-03-14T10:55:48;2.97;;;2.70;;
18320;SDS011;54904;54.350;18.664;2023-03-14T10:58:19;5.93;;;3.10;;
18320;SDS011;54904;54.350;18.664;2023-03-14T11:00:51;2.70;;;2.23;;
18320;SDS011;54904;54.350;18.664;2023-03-14T11:03:23;2.50;;;2.30;;
18320;SDS011;54904;54.350;18.664;2023-03-14T11:05:53;5.00;;;2.60;;
18320;SDS011;54904;54.350;18.664;2023-03-14T11:08:25;2.83;;;2.57;;
18320;SDS011;54904;54.350;18.664;2023-03-14T11:11:02;3.10;;;2.80;;
18320;SDS011;54904;54.350;18.664;2023-03-14T11:13:39;7.37;;;3.17;;
18320;SDS011;54904;54.350;18.664;2023-03-14T11:16:20;3.87;;;2.60;;
18320;SDS011;54904;54.350;18.664;2023-03-14T11:18:59;3.70;;;2.40;;
18320;SDS011;54904;54.350;18.664;2023-03-14T11:21:36;6.40;;;3.20;;
18320;SDS011;54904;54.350;18.664;2023-03-14T11:24:12;3.27;;;2.97;;
18320;SDS011;54904;54.350;18.664;2023-03-14T11:26:53;2.43;;;2.23;;
18320;SDS011;54904;54.350;18.664;2023-03-14T11:29:28;3.10;;;2.37;;
18320;SDS011;54904;54.350;18.664;2023-03-14T11:32:08;3.23;;;2.17;;
18320;SDS011;54904;54.350;18.664;2023-03-14T11:34:40;3.00;;;2.70;;
18320;SDS011;54904;54.350;18.664;2023-03-14T11:37:17;3.33;;;2.90;;
18320;SDS011;54904;54.350;18.664;2023-03-14T11:39:54;5.27;;;2.70;;
18320;SDS011;54904;54.350;18.664;2023-03-14T11:42:27;3.13;;;2.50;;
18320;SDS011;54904;54.350;18.664;2023-03-14T11:44:57;3.20;;;2.60;;
18320;SDS011;54904;54.350;18.664;2023-03-14T11:47:34;3.90;;;2.83;;
18320;SDS011;54904;54.350;18.664;2023-03-14T11:50:08;3.90;;;2.90;;
18320;SDS011;54904;54.350;18.664;2023-03-14T11:52:44;4.47;;;2.37;;
18320;SDS011;54904;54.350;18.664;2023-03-14T11:55:17;3.97;;;2.67;;
18320;SDS011;54904;54.350;18.664;2023-03-14T11:57:47;3.40;;;2.93;;
18320;SDS011;54904;54.350;18.664;2023-03-14T12:00:18;4.30;;;2.67;;
18320;SDS011;54904;54.350;18.664;2023-03-14T12:02:50;2.60;;;2.40;;
18320;SDS011;54904;54.350;18.664;2023-03-14T12:05:25;5.07;;;2.60;;
18320;SDS011;54904;54.350;18.664;2023-03-14T12:08:26;2.63;;;2.20;;
18320;SDS011;54904;54.350;18.664;2023-03-14T12:11:12;4.80;;;2.30;;
18320;SDS011;54904;54.350;18.664;2023-03-14T12:13:45;3.83;;;2.30;;
18320;SDS011;54904;54.350;18.664;2023-03-14T12:16:27;1.90;;;1.80;;
18320;SDS011;54904;54.350;18.664;2023-03-14T12:19:14;2.50;;;2.20;;
18320;SDS011;54904;54.350;18.664;2023-03-14T12:21:55;4.25;;;2.00;;
18320;SDS011;54904;54.350;18.664;2023-03-14T12:24:28;2.33;;;2.13;;
18320;SDS011;54904;54.350;18.664;2023-03-14T12:26:58;3.08;;;2.40;;
18320;SDS011;54904;54.350;18.664;2023-03-14T12:29:26;2.22;;;2.05;;
18320;SDS011;54904;54.350;18.664;2023-03-14T12:32:09;2.38;;;1.98;;
18320;SDS011;54904;54.350;18.664;2023-03-14T12:34:49;2.15;;;1.95;;
18320;SDS011;54904;54.350;18.664;2023-03-14T12:37:19;3.90;;;2.05;;
18320;SDS011;54904;54.350;18.664;2023-03-14T12:39:59;3.15;;;2.22;;
18320;SDS011;54904;54.350;18.664;2023-03-14T12:42:44;3.50;;;2.50;;
18320;SDS011;54904;54.350;18.664;2023-03-14T12:45:22;5.18;;;2.30;;
18320;SDS011;54904;54.350;18.664;2023-03-14T12:47:52;2.15;;;1.98;;
18320;SDS011;54904;54.350;18.664;2023-03-14T12:50:30;1.77;;;1.67;;
18320;SDS011;54904;54.350;18.664;2023-03-14T12:56:20;4.97;;;1.67;;
18320;SDS011;54904;54.350;18.664;2023-03-14T12:58:55;1.42;;;1.33;;
18320;SDS011;54904;54.350;18.664;2023-03-14T13:01:47;2.42;;;1.80;;
18320;SDS011;54904;54.350;18.664;2023-03-14T13:04:25;3.00;;;2.00;;
18320;SDS011;54904;54.350;18.664;2023-03-14T13:06:56;4.22;;;2.13;;
18320;SDS011;54904;54.350;18.664;2023-03-14T13:09:35;2.20;;;1.95;;
18320;SDS011;54904;54.350;18.664;2023-03-14T13:12:17;4.40;;;1.85;;
18320;SDS011;54904;54.350;18.664;2023-03-14T13:14:49;2.08;;;1.77;;
18320;SDS011;54904;54.350;18.664;2023-03-14T13:17:20;3.30;;;2.22;;
18320;SDS011;54904;54.350;18.664;2023-03-14T13:19:51;3.05;;;2.38;;
18320;SDS011;54904;54.350;18.664;2023-03-14T13:22:23;2.25;;;2.05;;
18320;SDS011;54904;54.350;18.664;2023-03-14T13:24:58;3.47;;;2.00;;
18320;SDS011;54904;54.350;18.664;2023-03-14T13:27:29;6.68;;;2.47;;
18320;SDS011;54904;54.350;18.664;2023-03-14T13:29:58;2.88;;;2.28;;
18320;SDS011;54904;54.350;18.664;2023-03-14T13:32:26;6.15;;;3.03;;
18320;SDS011;54904;54.350;18.664;2023-03-14T13:34:55;4.32;;;2.28;;
18320;SDS011;54904;54.350;18.664;2023-03-14T13:37:25;4.20;;;2.15;;
18320;SDS011;54904;54.350;18.664;2023-03-14T13:39:56;6.50;;;2.30;;
18320;SDS011;54904;54.350;18.664;2023-03-14T13:42:24;3.60;;;2.05;;
18320;SDS011;54904;54.350;18.664;2023-03-14T13:44:54;3.13;;;2.13;;
18320;SDS011;54904;54.350;18.664;2023-03-14T13:47:22;3.55;;;2.10;;
18320;SDS011;54904;54.350;18.664;2023-03-14T13:49:54;3.67;;;2.08;;
18320;SDS011;54904;54.350;18.664;2023-03-14T13:52:27;7.15;;;2.85;;
18320;SDS011;54904;54.350;18.664;2023-03-14T13:54:56;4.63;;;2.10;;
18320;SDS011;54904;54.350;18.664;2023-03-14T13:57:25;2.83;;;2.10;;
18320;SDS011;54904;54.350;18.664;2023-03-14T13:59:58;1.70;;;1.60;;
18320;SDS011;54904;54.350;18.664;2023-03-14T14:02:30;2.33;;;1.93;;
18320;SDS011;54904;54.350;18.664;2023-03-14T14:04:59;4.83;;;2.00;;
18320;SDS011;54904;54.350;18.664;2023-03-14T14:07:28;7.03;;;1.97;;
18320;SDS011;54904;54.350;18.664;2023-03-14T14:09:55;3.33;;;1.73;;
18320;SDS011;54904;54.350;18.664;2023-03-14T14:12:26;2.37;;;1.67;;
18320;SDS011;54904;54.350;18.664;2023-03-14T14:14:57;2.90;;;1.50;;
18320;SDS011;54904;54.350;18.664;2023-03-14T14:17:27;1.40;;;1.20;;
18320;SDS011;54904;54.350;18.664;2023-03-14T14:19:58;3.77;;;1.90;;
18320;SDS011;54904;54.350;18.664;2023-03-14T14:22:30;2.20;;;1.50;;
18320;SDS011;54904;54.350;18.664;2023-03-14T14:24:58;4.10;;;1.70;;
18320;SDS011;54904;54.350;18.664;2023-03-14T14:27:28;3.97;;;1.93;;
18320;SDS011;54904;54.350;18.664;2023-03-14T14:30:00;3.83;;;1.93;;
18320;SDS011;54904;54.350;18.664;2023-03-14T14:32:34;3.47;;;1.90;;
18320;SDS011;54904;54.350;18.664;2023-03-14T14:35:02;2.17;;;1.70;;
18320;SDS011;54904;54.350;18.664;2023-03-14T14:37:32;2.47;;;1.70;;
18320;SDS011;54904;54.350;18.664;2023-03-14T14:40:01;1.73;;;1.60;;
18320;SDS011;54904;54.350;18.664;2023-03-14T14:42:35;3.50;;;1.40;;
18320;SDS011;54904;54.350;18.664;2023-03-14T14:45:07;3.53;;;1.70;;
18320;SDS011;54904;54.350;18.664;2023-03-14T14:47:49;4.40;;;1.50;;
18320;SDS011;54904;54.350;18.664;2023-03-14T14:50:21;3.80;;;2.00;;
18320;SDS011;54904;54.350;18.664;2023-03-14T14:52:59;4.87;;;1.80;;
18320;SDS011;54904;54.350;18.664;2023-03-14T14:55:29;3.57;;;1.87;;
18320;SDS011;54904;54.350;18.664;2023-03-14T14:58:09;3.07;;;1.87;;
18320;SDS011;54904;54.350;18.664;2023-03-14T15:00:40;2.20;;;1.70;;
18320;SDS011;54904;54.350;18.664;2023-03-14T15:03:16;2.63;;;1.83;;
18320;SDS011;54904;54.350;18.664;2023-03-14T15:05:43;3.00;;;1.50;;
18320;SDS011;54904;54.350;18.664;2023-03-14T15:08:12;3.23;;;1.80;;
18320;SDS011;54904;54.350;18.664;2023-03-14T15:10:39;3.63;;;2.23;;